Mehriz, Iran
Current Conditions -  °F | °C
As of 10:30 PM on Sunday 23 Nov 2014 (Local Time) from OIYY Reporting Station
Scattered Clouds Scattered Clouds  
Wind Chill: 57°   Ceiling: Unl
Heat Index: 57°   Visibility: 6mi
Dew Point: 32°   Wind: 5mph
Humidity: 38%   Direction: 320°NW
Pressure: 30.03"   Gusts: NA
Location:  31.58°N, 54.45°E
Report Text: OIYY 231830Z 32004KT 9999 FEW035 SCT200 14/M00 Q1017
Loading
Personal Weather Stations






























Interactive Weather Map New forecast layout! Learn more

10-Day Weather Forecast

Advertisements
Track Severe Weather on mobile